Time;durP1;ratioP1;P1;durP2;ratioP2;P2;SDS_P1;SDS_P2;PMS_P1;PMS_P2;Temp;Humidity;BMP_temperature;BMP_pressure;BME280_temperature;BME280_humidity;BME280_pressure;Samples;Min_cycle;Max_cycle;Signal;HPM_P1;HPM_P2
2023/01/27 00:01:35;;;;;;;43.30;27.40;;;;;;;-0.67;99.83;100470.16;105920;1254;74478;-70
2023/01/27 00:04:04;;;;;;;50.20;31.00;;;;;;;-0.65;99.82;100469.42;106033;1253;59668;-71
2023/01/27 00:06:35;;;;;;;49.80;28.80;;;;;;;-0.65;99.79;100470.63;106119;1252;60327;-72
2023/01/27 00:09:05;;;;;;;54.30;30.70;;;;;;;-0.65;99.83;100464.11;106083;1254;72677;-74
2023/01/27 00:14:20;;;;;;;53.50;31.90;;;;;;;-0.70;99.77;100463.06;106139;1254;70922;-72
2023/01/27 00:16:48;;;;;;;51.00;28.40;;;;;;;-0.64;100.00;100463.16;106091;1254;60600;-72
2023/01/27 00:19:18;;;;;;;50.30;29.20;;;;;;;-0.59;99.99;100463.98;106030;1253;60848;-71
2023/01/27 00:24:36;;;;;;;58.40;33.90;;;;;;;-0.64;99.82;100459.59;106096;1253;68940;-72
2023/01/27 00:27:07;;;;;;;59.90;35.00;;;;;;;-0.75;99.50;100457.38;105596;1257;74169;-71
2023/01/27 00:29:40;;;;;;;42.40;26.00;;;;;;;-0.83;99.75;100454.59;105811;1254;59933;-71
2023/01/27 00:34:55;;;;;;;56.30;34.40;;;;;;;-1.04;100.00;100461.17;105959;1253;74139;-71
2023/01/27 00:37:23;;;;;;;57.90;33.30;;;;;;;-1.11;100.00;100460.08;105866;1257;67657;-73
2023/01/27 00:39:52;;;;;;;58.50;34.80;;;;;;;-1.12;100.00;100458.27;105269;1258;1003607;-71
2023/01/27 00:42:20;;;;;;;52.50;32.20;;;;;;;-1.16;100.00;100459.55;106112;1254;61968;-71
2023/01/27 00:47:37;;;;;;;47.20;31.90;;;;;;;-1.21;100.00;100458.66;105958;1254;73871;-71
2023/01/27 00:50:06;;;;;;;49.50;30.50;;;;;;;-1.09;100.00;100460.95;106119;1253;66760;-71
2023/01/27 00:52:35;;;;;;;51.40;32.60;;;;;;;-1.04;100.00;100457.23;106209;1254;73051;-72
2023/01/27 00:55:03;;;;;;;51.40;34.00;;;;;;;-1.09;100.00;100450.40;106118;1256;60067;-70
2023/01/27 00:57:32;;;;;;;48.50;31.40;;;;;;;-1.16;100.00;100452.83;105968;1254;61210;-70
2023/01/27 01:00:00;;;;;;;43.10;28.50;;;;;;;-1.18;100.00;100448.67;105828;1257;73466;-72
2023/01/27 01:02:30;;;;;;;51.80;32.00;;;;;;;-1.15;100.00;100445.14;106193;1254;69259;-73
2023/01/27 01:04:58;;;;;;;53.20;34.60;;;;;;;-1.20;100.00;100439.69;106128;1254;73450;-68
2023/01/27 01:07:30;;;;;;;49.70;30.80;;;;;;;-1.23;100.00;100435.77;106103;1253;59557;-73
2023/01/27 01:09:58;;;;;;;46.10;28.80;;;;;;;-1.25;100.00;100433.08;106121;1254;59887;-72
2023/01/27 01:12:27;;;;;;;56.30;32.40;;;;;;;-1.25;100.00;100430.38;106074;1255;74546;-73
2023/01/27 01:14:55;;;;;;;56.20;35.90;;;;;;;-1.23;100.00;100430.56;106123;1256;69093;-74
2023/01/27 01:17:24;;;;;;;47.30;29.90;;;;;;;-1.22;100.00;100431.66;106082;1254;73956;-71
2023/01/27 01:19:52;;;;;;;55.10;33.30;;;;;;;-1.19;100.00;100437.29;105951;1256;59653;-74
2023/01/27 01:22:20;;;;;;;50.90;33.00;;;;;;;-1.17;100.00;100436.09;106069;1252;60172;-73
2023/01/27 01:24:49;;;;;;;46.70;31.00;;;;;;;-1.12;100.00;100436.45;105891;1257;73026;-70
2023/01/27 01:27:17;;;;;;;50.30;32.90;;;;;;;-1.15;100.00;100429.54;106004;1257;68947;-70
2023/01/27 01:29:45;;;;;;;51.90;35.70;;;;;;;-1.18;100.00;100431.10;106071;1254;72447;-72
2023/01/27 01:32:13;;;;;;;43.20;29.10;;;;;;;-1.17;100.00;100430.29;106030;1255;60970;-72
2023/01/27 01:34:42;;;;;;;41.40;30.00;;;;;;;-1.18;100.00;100427.34;106121;1254;60528;-73
2023/01/27 01:37:10;;;;;;;49.60;33.10;;;;;;;-1.19;100.00;100425.31;106074;1254;73040;-72
2023/01/27 01:39:38;;;;;;;44.80;28.20;;;;;;;-1.16;100.00;100419.46;106226;1255;67709;-71
2023/01/27 01:42:06;;;;;;;48.70;30.50;;;;;;;-1.13;100.00;100419.65;106070;1254;72569;-74
2023/01/27 01:44:35;;;;;;;51.50;34.10;;;;;;;-1.20;100.00;100407.67;105951;1253;62797;-72
2023/01/27 01:47:04;;;;;;;58.30;34.90;;;;;;;-1.26;100.00;100412.23;105890;1254;60779;-70
2023/01/27 01:49:36;;;;;;;47.50;32.00;;;;;;;-1.32;100.00;100409.42;105790;1254;72991;-73
2023/01/27 01:52:15;;;;;;;54.70;34.60;;;;;;;-1.34;100.00;100407.00;106107;1253;66828;-71
2023/01/27 01:54:52;;;;;;;56.30;35.80;;;;;;;-1.32;100.00;100409.42;106111;1254;72276;-71
2023/01/27 01:57:24;;;;;;;53.40;33.90;;;;;;;-1.37;100.00;100406.95;106199;1256;60023;-72
2023/01/27 01:59:55;;;;;;;48.30;32.70;;;;;;;-1.42;100.00;100400.28;106101;1256;60296;-72
2023/01/27 02:02:23;;;;;;;58.00;31.20;;;;;;;-1.48;100.00;100399.45;105608;1254;73970;-71
2023/01/27 02:05:17;;;;;;;50.80;31.40;;;;;;;-1.53;100.00;100399.94;105717;1255;67009;-70
2023/01/27 05:45:42;;;;;;;88.80;41.20;;;;;;;-2.83;100.00;100388.78;102866;1297;601273;-75
2023/01/27 05:48:10;;;;;;;83.10;47.50;;;;;;;-2.84;100.00;100387.19;104975;1267;63060;-74
2023/01/27 05:50:39;;;;;;;79.90;43.40;;;;;;;-2.81;100.00;100378.60;105800;1261;61910;-75
2023/01/27 05:53:07;;;;;;;82.80;45.90;;;;;;;-2.72;100.00;100379.35;105554;1260;73186;-72
2023/01/27 05:55:36;;;;;;;74.80;41.40;;;;;;;-2.62;100.00;100381.54;105457;1260;69574;-77
2023/01/27 05:58:07;;;;;;;70.00;44.00;;;;;;;-2.55;100.00;100384.90;105389;1260;663630;-71
2023/01/27 06:00:36;;;;;;;72.00;42.80;;;;;;;-2.45;100.00;100390.89;105664;1261;63031;-71
2023/01/27 06:03:05;;;;;;;61.20;35.50;;;;;;;-2.36;100.00;100389.30;105830;1260;60802;-74
2023/01/27 06:05:33;;;;;;;62.40;37.20;;;;;;;-2.32;100.00;100394.94;105708;1258;75356;-72
2023/01/27 06:08:02;;;;;;;67.20;37.70;;;;;;;-2.33;100.00;100389.92;105645;1260;68491;-74
2023/01/27 06:10:31;;;;;;;69.20;34.40;;;;;;;-2.37;100.00;100393.29;105441;1260;72738;-73
2023/01/27 06:12:59;;;;;;;68.40;38.90;;;;;;;-2.39;100.00;100396.42;105718;1260;61176;-76
2023/01/27 06:15:27;;;;;;;54.30;33.90;;;;;;;-2.37;100.00;100399.27;105859;1259;59984;-78
2023/01/27 06:17:56;;;;;;;65.10;36.60;;;;;;;-2.32;100.00;100404.17;105669;1261;72710;-73
2023/01/27 06:20:24;;;;;;;57.10;35.70;;;;;;;-2.31;100.00;100402.86;105546;1258;66790;-74
2023/01/27 06:22:52;;;;;;;56.80;33.70;;;;;;;-2.25;100.00;100403.90;105719;1257;74002;-74
2023/01/27 06:25:20;;;;;;;54.00;31.40;;;;;;;-2.19;100.00;100408.55;105784;1257;63156;-74
2023/01/27 06:27:53;;;;;;;64.80;36.30;;;;;;;-2.18;100.00;100410.05;105546;1256;60935;-72
2023/01/27 06:30:22;;;;;;;62.40;34.30;;;;;;;-2.18;100.00;100409.34;105800;1261;74796;-73
2023/01/27 06:32:51;;;;;;;57.70;35.00;;;;;;;-2.18;100.00;100408.79;105688;1257;68815;-71
2023/01/27 06:35:23;;;;;;;68.70;37.80;;;;;;;-2.19;100.00;100409.04;105805;1257;73698;-73
2023/01/27 06:37:51;;;;;;;63.00;37.30;;;;;;;-2.21;100.00;100407.37;105641;1257;60622;-73
2023/01/27 06:40:20;;;;;;;66.00;35.10;;;;;;;-2.23;100.00;100411.37;105822;1257;61200;-73
2023/01/27 06:42:48;;;;;;;64.30;36.70;;;;;;;-2.26;100.00;100406.47;105809;1262;73152;-73
2023/01/27 06:45:16;;;;;;;55.10;33.40;;;;;;;-2.28;100.00;100403.31;105597;1264;68718;-73
2023/01/27 06:47:44;;;;;;;52.30;31.10;;;;;;;-2.28;100.00;100400.48;105608;1258;73404;-70
2023/01/27 06:50:13;;;;;;;54.40;34.20;;;;;;;-2.28;100.00;100398.90;105702;1262;60949;-73
2023/01/27 06:52:42;;;;;;;65.80;35.70;;;;;;;-2.28;100.00;100398.35;105804;1260;61180;-75
2023/01/27 06:55:10;;;;;;;55.60;34.20;;;;;;;-2.30;100.00;100400.43;105690;1263;71721;-75
2023/01/27 06:57:39;;;;;;;55.30;32.90;;;;;;;-2.31;100.00;100400.92;105494;1257;68544;-76
2023/01/27 07:00:10;;;;;;;53.50;31.40;;;;;;;-2.31;100.00;100402.50;105692;1261;74337;-74
2023/01/27 07:02:42;;;;;;;56.60;31.90;;;;;;;-2.32;100.00;100403.50;105851;1261;60724;-77
2023/01/27 07:05:10;;;;;;;57.40;33.30;;;;;;;-2.34;100.00;100404.54;105913;1259;59660;-73
2023/01/27 07:07:38;;;;;;;62.40;34.30;;;;;;;-2.33;100.00;100403.94;105833;1260;74240;-73
2023/01/27 07:10:08;;;;;;;55.30;34.70;;;;;;;-2.31;100.00;100399.67;105842;1260;67687;-73
2023/01/27 07:12:37;;;;;;;51.10;32.30;;;;;;;-2.20;100.00;100401.48;105726;1254;72552;-73
2023/01/27 07:15:06;;;;;;;46.50;27.60;;;;;;;-2.09;100.00;100393.64;105902;1260;59691;-75
2023/01/27 07:17:35;;;;;;;61.90;33.00;;;;;;;-2.04;100.00;100392.34;105883;1260;61254;-75
2023/01/27 07:20:05;;;;;;;52.30;32.20;;;;;;;-2.13;100.00;100392.83;105878;1261;74120;-77
2023/01/27 07:22:34;;;;;;;49.10;29.50;;;;;;;-2.22;100.00;100399.16;105809;1260;66904;-75
2023/01/27 07:25:03;;;;;;;53.30;33.20;;;;;;;-2.25;100.00;100404.70;105719;1259;73369;-76
2023/01/27 07:27:33;;;;;;;51.50;30.20;;;;;;;-2.29;100.00;100405.82;105760;1257;63074;-75
2023/01/27 07:30:01;;;;;;;45.80;28.50;;;;;;;-2.31;100.00;100403.91;105803;1260;62061;-75
2023/01/27 07:32:29;;;;;;;45.90;28.80;;;;;;;-2.27;100.00;100403.92;105618;1259;74468;-75
2023/01/27 07:34:57;;;;;;;52.10;29.70;;;;;;;-2.31;100.00;100405.73;106022;1255;67504;-73
2023/01/27 07:37:25;;;;;;;43.60;27.00;;;;;;;-2.37;100.00;100406.33;105759;1258;73804;-74
2023/01/27 07:39:53;;;;;;;49.70;30.60;;;;;;;-2.41;100.00;100405.27;105681;1260;59711;-75
2023/01/27 07:42:22;;;;;;;46.80;28.10;;;;;;;-2.41;100.00;100400.73;105753;1257;61769;-73
2023/01/27 07:44:50;;;;;;;49.20;31.40;;;;;;;-2.46;100.00;100397.73;105706;1260;74279;-75
2023/01/27 07:47:18;;;;;;;46.30;29.70;;;;;;;-2.50;100.00;100401.07;105788;1260;67145;-73
2023/01/27 07:49:47;;;;;;;45.70;28.40;;;;;;;-2.51;100.00;100401.37;105822;1262;72837;-74
2023/01/27 07:52:16;;;;;;;41.70;26.20;;;;;;;-2.52;100.00;100399.29;105751;1262;59893;-76
2023/01/27 07:54:44;;;;;;;44.10;29.10;;;;;;;-2.50;100.00;100398.28;105609;1260;59714;-76
2023/01/27 07:57:12;;;;;;;46.00;28.30;;;;;;;-2.44;100.00;100396.30;105766;1260;73047;-76
2023/01/27 07:59:40;;;;;;;46.00;27.00;;;;;;;-2.37;100.00;100397.30;105083;1257;1002919;-74
2023/01/27 08:02:09;;;;;;;51.60;31.00;;;;;;;-2.35;100.00;100397.62;105877;1257;72286;-76
2023/01/27 08:04:37;;;;;;;49.10;28.80;;;;;;;-2.33;100.00;100388.34;105714;1260;61337;-73
2023/01/27 08:07:20;;;;;;;44.10;28.40;;;;;;;-2.31;100.00;100387.98;105708;1260;60270;-72
2023/01/27 08:09:48;;;;;;;43.70;28.20;;;;;;;-2.31;100.00;100386.23;105752;1258;71863;-72
2023/01/27 08:12:16;;;;;;;43.80;27.00;;;;;;;-2.28;100.00;100382.38;105843;1260;68184;-73
2023/01/27 08:14:44;;;;;;;45.60;27.30;;;;;;;-2.26;100.00;100386.59;105745;1258;73239;-74
2023/01/27 08:17:12;;;;;;;45.20;26.40;;;;;;;-2.31;100.00;100382.29;105803;1269;59670;-73
2023/01/27 08:19:40;;;;;;;41.20;25.20;;;;;;;-2.34;100.00;100383.20;105820;1263;61361;-76
2023/01/27 08:22:08;;;;;;;41.10;25.50;;;;;;;-2.33;100.00;100383.55;105861;1260;74201;-76
2023/01/27 08:24:36;;;;;;;33.90;21.50;;;;;;;-2.32;100.00;100385.44;105672;1270;67971;-75
2023/01/27 08:27:04;;;;;;;41.30;24.50;;;;;;;-2.30;100.00;100384.19;105659;1260;71658;-76
2023/01/27 08:29:35;;;;;;;44.40;27.70;;;;;;;-2.33;100.00;100386.18;105700;1259;61074;-76
2023/01/27 08:32:03;;;;;;;37.10;24.00;;;;;;;-2.36;100.00;100387.93;105833;1255;61847;-74
2023/01/27 08:34:32;;;;;;;47.50;27.60;;;;;;;-2.39;100.00;100382.59;106027;1260;72469;-75
2023/01/27 08:37:00;;;;;;;41.40;26.00;;;;;;;-2.36;100.00;100384.97;106025;1260;66465;-75
2023/01/27 08:39:29;;;;;;;39.00;22.50;;;;;;;-2.35;100.00;100386.59;105699;1260;72059;-76
2023/01/27 08:41:57;;;;;;;43.80;24.70;;;;;;;-2.31;100.00;100388.67;105649;1260;60880;-74
2023/01/27 08:44:27;;;;;;;39.60;22.70;;;;;;;-2.30;100.00;100384.18;105575;1260;60505;-75
2023/01/27 08:46:55;;;;;;;40.30;23.90;;;;;;;-2.31;100.00;100379.15;105678;1257;72672;-75
2023/01/27 08:49:23;;;;;;;45.50;25.40;;;;;;;-2.35;100.00;100380.47;105789;1262;68330;-75
2023/01/27 08:51:51;;;;;;;40.30;24.40;;;;;;;-2.32;100.00;100372.98;105649;1261;71534;-74
2023/01/27 08:54:20;;;;;;;43.70;25.10;;;;;;;-2.27;100.00;100367.67;105747;1257;59761;-74
2023/01/27 08:56:50;;;;;;;38.50;25.70;;;;;;;-2.23;100.00;100364.48;105750;1255;62407;-75
2023/01/27 08:59:19;;;;;;;37.40;24.90;;;;;;;-2.19;100.00;100368.71;105834;1260;74567;-75
2023/01/27 09:01:49;;;;;;;40.50;25.80;;;;;;;-2.20;100.00;100371.05;105902;1258;69015;-73
2023/01/27 09:04:17;;;;;;;43.80;27.30;;;;;;;-2.22;100.00;100370.19;105815;1255;74206;-75
2023/01/27 09:06:47;;;;;;;47.70;27.30;;;;;;;-2.21;100.00;100368.51;105791;1260;61919;-73
2023/01/27 09:09:15;;;;;;;41.20;25.80;;;;;;;-2.20;100.00;100365.25;105731;1260;61919;-71
2023/01/27 09:11:46;;;;;;;40.50;26.80;;;;;;;-2.16;100.00;100365.20;105670;1255;73574;-72
2023/01/27 09:14:14;;;;;;;46.10;28.20;;;;;;;-2.13;100.00;100363.88;105746;1260;68543;-72
2023/01/27 09:16:43;;;;;;;46.80;25.60;;;;;;;-2.15;100.00;100366.65;105799;1255;73830;-72
2023/01/27 09:19:14;;;;;;;41.20;25.60;;;;;;;-2.15;100.00;100368.65;105714;1261;59959;-72
2023/01/27 09:21:43;;;;;;;38.60;23.40;;;;;;;-2.10;100.00;100374.41;105750;1259;59926;-74
2023/01/27 09:24:16;;;;;;;54.80;30.60;;;;;;;-2.05;100.00;100379.57;105647;1261;75110;-78
2023/01/27 09:26:47;;;;;;;46.40;28.90;;;;;;;-2.05;100.00;100378.33;105787;1257;69383;-75
2023/01/27 09:29:15;;;;;;;51.80;32.30;;;;;;;-2.03;100.00;100379.02;105810;1260;73195;-75
2023/01/27 09:31:43;;;;;;;53.50;30.90;;;;;;;-2.00;100.00;100372.61;105865;1258;59987;-74
2023/01/27 09:34:12;;;;;;;57.50;30.80;;;;;;;-1.95;100.00;100375.71;105826;1257;62203;-73
2023/01/27 09:36:44;;;;;;;54.80;34.40;;;;;;;-1.96;100.00;100378.70;105685;1258;72011;-73
2023/01/27 09:39:12;;;;;;;52.40;32.00;;;;;;;-1.96;100.00;100377.75;105879;1260;69809;-73
2023/01/27 09:41:50;;;;;;;57.80;32.40;;;;;;;-1.95;100.00;100370.50;105514;1258;71460;-73
2023/01/27 13:55:45;;;;;;;43.40;26.30;;;;;;;-2.49;100.00;100290.16;103394;1298;601196;-72
2023/01/27 13:58:36;;;;;;;48.70;27.90;;;;;;;-2.50;100.00;100284.83;105334;1268;61833;-72
2023/01/27 14:01:16;;;;;;;40.20;26.20;;;;;;;-2.47;100.00;100287.38;105427;1268;61955;-72
2023/01/27 14:03:56;;;;;;;44.00;28.70;;;;;;;-2.42;100.00;100289.00;105922;1273;72138;-72
2023/01/27 14:06:37;;;;;;;40.50;25.90;;;;;;;-2.35;100.00;100286.73;105822;1273;68022;-75
2023/01/27 14:09:20;;;;;;;38.40;24.90;;;;;;;-2.20;100.00;100288.99;105410;1268;553531;-73
2023/01/27 14:11:55;;;;;;;31.00;20.10;;;;;;;-2.07;100.00;100297.15;105900;1269;60377;-72
2023/01/27 14:14:51;;;;;;;33.30;23.10;;;;;;;-1.99;100.00;100302.05;105886;1268;59390;-70
2023/01/27 14:17:43;;;;;;;36.50;26.00;;;;;;;-1.96;100.00;100303.59;104947;1274;72622;-73
2023/01/27 14:20:23;;;;;;;49.30;29.30;;;;;;;-1.89;100.00;100301.00;104383;1274;68191;-73
2023/01/27 14:23:19;;;;;;;45.70;28.50;;;;;;;-1.83;100.00;100294.74;105013;1272;72497;-73
2023/01/27 14:26:30;;;;;;;40.30;25.50;;;;;;;-1.79;100.00;100296.48;105002;1268;61744;-74
2023/01/27 14:29:13;;;;;;;45.20;28.70;;;;;;;-1.75;100.00;100296.27;105013;1268;60978;-74
2023/01/27 14:32:00;;;;;;;42.80;25.40;;;;;;;-1.75;100.00;100296.96;105370;1265;73243;-76
2023/01/27 14:35:20;;;;;;;41.60;26.70;;;;;;;-1.68;100.00;100295.85;105443;1262;69423;-73
2023/01/27 14:37:52;;;;;;;38.00;22.90;;;;;;;-1.59;100.00;100305.30;105139;1265;73860;-73
2023/01/27 14:40:27;;;;;;;39.80;24.80;;;;;;;-1.61;100.00;100304.82;105355;1262;62534;-75
2023/01/27 14:43:11;;;;;;;43.50;22.90;;;;;;;-1.63;100.00;100303.23;105402;1262;59874;-72
2023/01/27 14:45:43;;;;;;;39.10;25.60;;;;;;;-1.59;100.00;100301.84;105663;1261;73706;-71
2023/01/27 14:48:35;;;;;;;46.60;26.90;;;;;;;-1.55;100.00;100301.89;105566;1259;69081;-73
2023/01/27 14:51:15;;;;;;;36.80;21.90;;;;;;;-1.49;100.00;100299.48;105667;1261;73321;-75
2023/01/27 14:54:22;;;;;;;39.10;24.90;;;;;;;-1.41;100.00;100302.52;105626;1262;59563;-76
2023/01/27 14:57:03;;;;;;;44.80;24.90;;;;;;;-1.43;100.00;100301.22;105396;1259;60255;-75
2023/01/27 14:59:46;;;;;;;43.50;27.80;;;;;;;-1.48;100.00;100300.77;105601;1258;72966;-73
2023/01/27 15:02:29;;;;;;;42.40;25.20;;;;;;;-1.43;100.00;100305.80;105087;1261;68541;-74
2023/01/27 15:05:10;;;;;;;54.50;32.00;;;;;;;-1.39;100.00;100309.72;105616;1263;72928;-73
2023/01/27 15:07:54;;;;;;;55.10;34.50;;;;;;;-1.40;100.00;100312.95;105735;1261;59667;-74
2023/01/27 15:10:27;;;;;;;55.60;31.60;;;;;;;-1.38;100.00;100306.56;105642;1263;61151;-74
2023/01/27 15:13:17;;;;;;;50.80;29.70;;;;;;;-1.38;100.00;100304.48;105586;1262;73174;-75
2023/01/27 15:15:52;;;;;;;54.10;33.10;;;;;;;-1.42;100.00;100314.23;105626;1263;69224;-75
2023/01/27 15:18:26;;;;;;;39.10;25.50;;;;;;;-1.42;100.00;100313.03;105780;1263;72737;-74
2023/01/27 15:21:16;;;;;;;42.70;25.80;;;;;;;-1.40;100.00;100314.52;105647;1263;60568;-74
2023/01/27 15:23:57;;;;;;;36.00;23.80;;;;;;;-1.30;100.00;100314.08;105616;1261;61160;-74
2023/01/27 15:26:25;;;;;;;42.20;25.80;;;;;;;-1.24;100.00;100314.55;105445;1261;73752;-74
2023/01/27 15:28:53;;;;;;;43.10;26.60;;;;;;;-1.31;100.00;100316.15;105626;1262;68372;-73
2023/01/27 15:31:24;;;;;;;43.00;27.50;;;;;;;-1.35;100.00;100316.54;105666;1259;74474;-71
2023/01/27 15:34:20;;;;;;;40.70;28.70;;;;;;;-1.32;100.00;100318.49;105843;1257;62672;-74
2023/01/27 15:37:08;;;;;;;45.50;27.90;;;;;;;-1.26;100.00;100311.17;105676;1258;61132;-72
2023/01/27 15:39:52;;;;;;;48.60;29.20;;;;;;;-1.21;100.00;100305.70;105631;1261;71630;-75
2023/01/27 15:42:51;;;;;;;40.40;27.00;;;;;;;-1.18;100.00;100304.00;105638;1262;68478;-73
2023/01/27 15:45:35;;;;;;;41.70;26.40;;;;;;;-1.19;100.00;100308.52;105634;1257;74197;-73
2023/01/27 15:48:13;;;;;;;43.90;28.20;;;;;;;-1.24;100.00;100314.73;105526;1259;61644;-73
2023/01/27 15:50:46;;;;;;;40.70;25.50;;;;;;;-1.26;100.00;100314.42;105560;1262;59666;-73
2023/01/27 15:53:37;;;;;;;42.30;26.80;;;;;;;-1.24;100.00;100311.70;106090;1257;72661;-72
2023/01/27 15:56:08;;;;;;;49.80;31.20;;;;;;;-1.21;100.00;100315.04;107143;1258;67866;-74
2023/01/27 15:58:41;;;;;;;45.10;29.00;;;;;;;-1.23;100.00;100315.45;108244;1257;71775;-74
2023/01/27 16:01:21;;;;;;;46.90;29.10;;;;;;;-1.25;100.00;100316.71;106134;1257;59525;-76
2023/01/27 16:03:51;;;;;;;40.20;26.40;;;;;;;-1.36;100.00;100318.14;105597;1258;59647;-75
2023/01/27 16:06:24;;;;;;;40.40;24.30;;;;;;;-1.40;99.98;100325.30;105515;1264;74118;-74
2023/01/27 16:08:58;;;;;;;40.60;26.40;;;;;;;-1.45;99.86;100327.27;105669;1261;68895;-74
2023/01/27 16:11:28;;;;;;;35.00;23.30;;;;;;;-1.48;100.00;100328.63;105813;1259;71232;-73
2023/01/27 16:14:15;;;;;;;39.80;23.80;;;;;;;-1.50;99.90;100328.47;104932;1260;1003087;-75
2023/01/27 16:17:01;;;;;;;40.40;25.50;;;;;;;-1.52;99.95;100329.00;105703;1264;59627;-74
2023/01/27 16:19:35;;;;;;;39.90;25.00;;;;;;;-1.57;99.80;100329.21;105510;1264;72972;-75
2023/01/27 16:22:16;;;;;;;38.30;23.90;;;;;;;-1.63;99.35;100327.19;105562;1263;68404;-73
2023/01/27 16:24:57;;;;;;;41.40;27.80;;;;;;;-1.74;99.56;100326.20;105448;1257;72351;-76
2023/01/27 16:27:34;;;;;;;40.00;24.40;;;;;;;-1.84;99.89;100322.28;105648;1262;60566;-76
2023/01/27 16:30:20;;;;;;;40.20;23.10;;;;;;;-1.85;99.94;100317.10;105820;1256;61677;-75
2023/01/27 16:33:03;;;;;;;37.70;25.00;;;;;;;-1.83;100.00;100316.43;105800;1257;74436;-77
2023/01/27 16:35:41;;;;;;;33.40;21.70;;;;;;;-1.86;99.98;100312.60;105745;1259;68312;-76
2023/01/27 16:38:15;;;;;;;40.00;24.50;;;;;;;-1.88;100.00;100319.20;105543;1264;71840;-75
2023/01/27 16:40:50;;;;;;;40.40;24.60;;;;;;;-1.89;100.00;100324.03;105818;1257;61049;-74
2023/01/27 16:43:24;;;;;;;38.30;23.70;;;;;;;-1.87;100.00;100325.56;105251;1261;61234;-74
2023/01/27 16:45:52;;;;;;;39.30;24.00;;;;;;;-1.85;100.00;100323.59;105433;1263;74027;-75
2023/01/27 16:48:21;;;;;;;39.60;25.10;;;;;;;-1.81;100.00;100321.98;105591;1262;67628;-74
2023/01/27 16:50:49;;;;;;;38.40;23.00;;;;;;;-1.83;100.00;100321.61;105502;1263;72199;-74
2023/01/27 16:53:21;;;;;;;38.80;23.10;;;;;;;-1.84;100.00;100321.42;105468;1258;59800;-72
2023/01/27 16:55:56;;;;;;;44.30;27.70;;;;;;;-1.86;100.00;100320.65;105655;1263;59957;-75
2023/01/27 16:58:25;;;;;;;34.50;20.90;;;;;;;-1.87;100.00;100320.24;105682;1259;73615;-74
2023/01/27 17:01:26;;;;;;;37.20;21.90;;;;;;;-1.87;100.00;100316.40;105303;1263;67179;-74
2023/01/27 17:03:57;;;;;;;31.70;20.30;;;;;;;-1.85;100.00;100311.63;105705;1260;72529;-75
2023/01/27 17:06:36;;;;;;;38.00;22.80;;;;;;;-1.84;100.00;100308.74;105583;1264;60649;-76
2023/01/27 17:09:24;;;;;;;30.80;21.10;;;;;;;-1.85;100.00;100312.00;105563;1257;60484;-77
2023/01/27 17:11:54;;;;;;;32.60;21.50;;;;;;;-1.88;100.00;100308.92;105532;1260;73887;-76
2023/01/27 17:14:35;;;;;;;31.30;21.20;;;;;;;-1.90;100.00;100306.34;105612;1262;68938;-74
2023/01/27 17:17:17;;;;;;;37.30;22.20;;;;;;;-1.89;100.00;100301.00;105643;1258;73526;-76
2023/01/27 17:19:48;;;;;;;32.30;23.10;;;;;;;-1.89;100.00;100305.60;105620;1262;59739;-76
2023/01/27 17:22:21;;;;;;;36.20;21.10;;;;;;;-1.89;100.00;100302.05;105754;1257;60722;-78
2023/01/27 17:25:01;;;;;;;33.20;21.60;;;;;;;-1.89;100.00;100301.86;105540;1263;72626;-75
2023/01/27 17:27:33;;;;;;;35.00;21.90;;;;;;;-1.91;100.00;100299.21;105504;1257;66660;-76
2023/01/27 17:30:13;;;;;;;36.30;21.20;;;;;;;-1.92;100.00;100300.98;105767;1262;72655;-75
2023/01/27 17:32:49;;;;;;;39.30;25.50;;;;;;;-1.97;100.00;100301.41;105643;1262;61624;-76
2023/01/27 17:35:29;;;;;;;38.60;22.80;;;;;;;-1.94;100.00;100300.97;105388;1257;60136;-77
2023/01/27 17:38:13;;;;;;;40.40;25.70;;;;;;;-1.90;100.00;100300.56;105723;1257;72144;-74
2023/01/27 17:40:46;;;;;;;34.90;23.10;;;;;;;-1.87;100.00;100301.80;105551;1257;67109;-72
2023/01/27 17:43:34;;;;;;;42.40;26.10;;;;;;;-1.86;100.00;100299.13;105687;1262;72224;-73
2023/01/27 17:46:22;;;;;;;48.50;29.10;;;;;;;-1.87;100.00;100295.91;105432;1258;60656;-75
2023/01/27 17:48:53;;;;;;;49.40;30.20;;;;;;;-1.88;100.00;100298.44;105681;1262;61152;-76
2023/01/27 17:51:27;;;;;;;42.40;25.60;;;;;;;-1.85;100.00;100299.04;105490;1264;72994;-74
2023/01/27 17:53:55;;;;;;;41.00;25.30;;;;;;;-1.87;100.00;100299.34;105590;1262;69121;-72
2023/01/27 17:56:29;;;;;;;39.70;24.40;;;;;;;-1.90;100.00;100298.12;105213;1262;74401;-74
2023/01/27 17:59:04;;;;;;;39.40;23.90;;;;;;;-1.87;100.00;100299.59;105722;1262;61355;-73
2023/01/27 18:01:33;;;;;;;36.20;24.50;;;;;;;-1.87;100.00;100301.71;105664;1257;60426;-78
2023/01/27 22:01:07;;;;;;;77.10;41.50;;;;;;;-3.28;100.00;100286.33;102563;1294;614108;-75
2023/01/27 22:03:34;;;;;;;68.70;37.40;;;;;;;-3.29;100.00;100286.45;104853;1274;62212;-71
2023/01/27 22:06:07;;;;;;;73.50;41.70;;;;;;;-3.26;100.00;100285.07;104676;1273;60521;-68
2023/01/27 22:08:35;;;;;;;67.90;41.50;;;;;;;-3.20;100.00;100286.06;104507;1272;73049;-70
2023/01/27 22:11:06;;;;;;;67.60;40.00;;;;;;;-3.13;100.00;100285.96;104523;1269;67766;-70
2023/01/27 22:13:33;;;;;;;58.80;37.40;;;;;;;-3.07;100.00;100285.38;104101;1270;652280;-71
2023/01/27 22:16:00;;;;;;;48.00;32.60;;;;;;;-2.98;100.00;100284.13;105310;1263;60810;-69
2023/01/27 22:18:28;;;;;;;55.00;33.50;;;;;;;-2.90;100.00;100275.13;104747;1263;60175;-71
2023/01/27 22:20:55;;;;;;;49.70;31.60;;;;;;;-2.84;100.00;100269.80;105075;1269;74235;-70
2023/01/27 22:23:23;;;;;;;48.80;33.30;;;;;;;-2.83;100.00;100263.19;104927;1264;67993;-71
2023/01/27 22:25:50;;;;;;;60.60;36.00;;;;;;;-2.82;100.00;100258.33;105116;1263;72324;-70
2023/01/27 22:28:18;;;;;;;52.70;34.80;;;;;;;-2.80;100.00;100253.42;105353;1264;61232;-70
2023/01/27 22:30:45;;;;;;;44.70;31.40;;;;;;;-2.76;100.00;100249.84;104788;1264;61934;-70
2023/01/27 22:33:12;;;;;;;46.40;30.50;;;;;;;-2.70;100.00;100247.66;105235;1263;72920;-71
2023/01/27 22:35:39;;;;;;;44.40;31.10;;;;;;;-2.71;100.00;100243.38;105220;1267;68908;-69
2023/01/27 22:38:06;;;;;;;51.40;30.50;;;;;;;-2.71;100.00;100235.49;105244;1263;72514;-69
2023/01/27 22:40:36;;;;;;;53.90;32.60;;;;;;;-2.74;100.00;100236.11;105552;1260;62605;-69
2023/01/27 22:43:09;;;;;;;49.70;33.50;;;;;;;-2.76;100.00;100235.99;105109;1260;59767;-69
2023/01/27 22:45:38;;;;;;;52.20;32.40;;;;;;;-2.73;100.00;100234.45;105070;1260;72118;-71
2023/01/27 22:48:07;;;;;;;50.80;32.00;;;;;;;-2.71;100.00;100238.52;105196;1264;67392;-70
2023/01/27 22:50:35;;;;;;;51.20;30.90;;;;;;;-2.69;100.00;100243.55;105527;1260;70942;-69
2023/01/27 22:53:04;;;;;;;46.90;28.70;;;;;;;-2.70;100.00;100249.83;105165;1260;59653;-71
2023/01/27 22:55:31;;;;;;;54.20;33.10;;;;;;;-2.76;100.00;100247.54;105354;1265;61272;-71
2023/01/27 22:58:00;;;;;;;55.10;30.40;;;;;;;-2.82;100.00;100250.98;105352;1260;74784;-67
2023/01/27 23:00:27;;;;;;;45.40;28.20;;;;;;;-2.87;100.00;100245.85;104990;1260;67238;-67
2023/01/27 23:02:54;;;;;;;41.80;28.00;;;;;;;-2.89;100.00;100243.11;104291;1260;1003636;-67
2023/01/27 23:05:21;;;;;;;48.40;29.80;;;;;;;-2.89;100.00;100238.89;105074;1260;60098;-68
2023/01/27 23:07:48;;;;;;;38.40;23.20;;;;;;;-2.88;100.00;100236.98;105018;1260;61265;-66
2023/01/27 23:10:16;;;;;;;61.50;31.10;;;;;;;-2.88;100.00;100232.33;104151;1265;1003077;-68
2023/01/27 23:12:42;;;;;;;48.50;29.40;;;;;;;-2.91;100.00;100231.50;104961;1261;68343;-65
2023/01/27 23:15:09;;;;;;;49.10;27.70;;;;;;;-2.98;100.00;100224.89;105076;1261;74385;-68
2023/01/27 23:17:36;;;;;;;47.40;31.80;;;;;;;-3.02;100.00;100218.61;105224;1260;60865;-66